Time;durP1;ratioP1;P1;durP2;ratioP2;P2;SDS_P1;SDS_P2;PMS_P1;PMS_P2;Temp;Humidity;BMP_temperature;BMP_pressure;BME280_temperature;BME280_humidity;BME280_pressure;Samples;Min_cycle;Max_cycle;Signal;HPM_P1;HPM_P2
2023/02/09 00:00:02;;;;;;;9.57;5.25;;;;;6.80;102964.00;;;;5062905;28;20195;-74
2023/02/09 00:02:32;;;;;;;8.93;5.30;;;;;6.70;102965.00;;;;5060186;28;20191;-74
2023/02/09 00:04:59;;;;;;;9.27;5.85;;;;;6.70;102961.00;;;;5060706;28;20229;-74
2023/02/09 00:07:27;;;;;;;6.68;4.43;;;;;6.70;102963.00;;;;5048174;28;20199;-73
2023/02/09 00:09:54;;;;;;;7.43;4.68;;;;;6.70;102971.00;;;;5058094;28;20192;-74
2023/02/09 00:15:08;;;;;;;7.25;4.75;;;;;6.60;102966.00;;;;5062893;28;20360;-74
2023/02/09 00:17:37;;;;;;;8.93;5.45;;;;;6.60;102968.00;;;;5049928;28;20206;-74
2023/02/09 00:20:05;;;;;;;7.40;4.80;;;;;6.60;102970.00;;;;5054994;28;20195;-73
2023/02/09 00:22:33;;;;;;;8.05;5.05;;;;;6.60;102972.00;;;;5048580;28;20196;-73
2023/02/09 00:25:01;;;;;;;5.63;4.10;;;;;6.60;102968.00;;;;5053151;28;20583;-74
2023/02/09 00:27:29;;;;;;;7.03;4.50;;;;;6.60;102970.00;;;;5056402;28;20195;-73
2023/02/09 00:29:56;;;;;;;8.88;4.78;;;;;6.60;102957.00;;;;5056222;28;20203;-74
2023/02/09 00:32:23;;;;;;;7.32;5.13;;;;;6.60;102961.00;;;;5056070;28;20203;-74
2023/02/09 00:34:52;;;;;;;8.43;4.97;;;;;6.50;102966.00;;;;5068277;28;20198;-74
2023/02/09 00:37:19;;;;;;;7.38;4.90;;;;;6.50;102964.00;;;;5062605;28;20199;-74
2023/02/09 00:39:47;;;;;;;7.30;5.00;;;;;6.50;102963.00;;;;5063312;28;20191;-74
2023/02/09 00:42:14;;;;;;;8.60;5.00;;;;;6.50;102959.00;;;;5064865;28;20187;-74
2023/02/09 00:44:41;;;;;;;8.30;5.13;;;;;6.50;102958.00;;;;5063534;28;20209;-74
2023/02/09 00:47:09;;;;;;;7.05;4.95;;;;;6.50;102959.00;;;;5057933;28;20231;-74
2023/02/09 00:49:38;;;;;;;7.28;4.53;;;;;6.50;102957.00;;;;5047557;28;20211;-74
2023/02/09 00:52:07;;;;;;;7.32;4.90;;;;;6.40;102966.00;;;;5053681;28;20225;-74
2023/02/09 00:54:35;;;;;;;8.05;4.57;;;;;6.40;102965.00;;;;5057964;28;20203;-74
2023/02/09 00:57:04;;;;;;;7.22;4.85;;;;;6.40;102960.00;;;;5050105;28;20199;-74
2023/02/09 00:59:33;;;;;;;6.80;4.60;;;;;6.40;102964.00;;;;5056656;28;20310;-74
2023/02/09 01:02:00;;;;;;;7.75;5.25;;;;;6.40;102961.00;;;;5051094;28;20195;-74
2023/02/09 01:04:28;;;;;;;6.70;4.60;;;;;6.40;102960.00;;;;5049980;28;20210;-74
2023/02/09 01:06:55;;;;;;;6.97;5.10;;;;;6.40;102954.00;;;;5064705;28;20653;-74
2023/02/09 01:09:25;;;;;;;7.13;4.68;;;;;6.30;102956.00;;;;5062557;28;20195;-74
2023/02/09 01:11:52;;;;;;;10.07;5.70;;;;;6.30;102965.00;;;;5060233;28;20231;-74
2023/02/09 01:14:19;;;;;;;8.77;5.60;;;;;6.30;102956.00;;;;5064892;28;20202;-74
2023/02/09 01:16:47;;;;;;;7.38;4.78;;;;;6.30;102951.00;;;;5051448;28;20204;-74
2023/02/09 01:19:14;;;;;;;7.25;4.65;;;;;6.30;102955.00;;;;5054762;28;20206;-74
2023/02/09 01:21:42;;;;;;;6.93;4.72;;;;;6.30;102942.00;;;;5062015;28;20568;-74
2023/02/09 01:24:12;;;;;;;8.50;4.47;;;;;6.20;102949.00;;;;5055909;28;20223;-73
2023/02/09 01:26:41;;;;;;;7.68;4.85;;;;;6.20;102948.00;;;;5061658;28;20287;-73
2023/02/09 01:29:11;;;;;;;6.28;4.47;;;;;6.20;102947.00;;;;5061579;28;20227;-74
2023/02/09 01:31:39;;;;;;;7.85;5.18;;;;;6.20;102948.00;;;;5061991;28;20230;-73
2023/02/09 01:34:07;;;;;;;7.50;5.10;;;;;6.20;102948.00;;;;5060062;28;20202;-74
2023/02/09 01:36:34;;;;;;;6.32;4.75;;;;;6.20;102954.00;;;;5069512;28;20198;-74
2023/02/09 01:39:03;;;;;;;6.45;4.68;;;;;6.20;102948.00;;;;5052796;28;20677;-74
2023/02/09 01:41:32;;;;;;;8.00;5.03;;;;;6.20;102950.00;;;;5060160;28;20202;-74
2023/02/09 01:44:03;;;;;;;8.80;5.68;;;;;6.10;102946.00;;;;5057649;28;20219;-73
2023/02/09 01:46:32;;;;;;;7.57;4.40;;;;;6.10;102945.00;;;;5060578;28;20313;-74
2023/02/09 01:49:05;;;;;;;7.30;4.95;;;;;6.10;102945.00;;;;5070565;28;20191;-73
2023/02/09 01:51:36;;;;;;;8.73;5.25;;;;;6.10;102937.00;;;;5060326;28;20226;-74
2023/02/09 01:54:07;;;;;;;7.28;4.82;;;;;6.10;102933.00;;;;5056928;28;20681;-74
2023/02/09 01:56:36;;;;;;;6.45;4.70;;;;;6.10;102935.00;;;;5066988;28;20195;-74
2023/02/09 01:59:05;;;;;;;8.07;5.40;;;;;6.10;102933.00;;;;5061047;28;20215;-74
2023/02/09 02:01:32;;;;;;;8.82;5.13;;;;;6.10;102924.00;;;;5057646;28;20200;-74
2023/02/09 02:04:00;;;;;;;8.57;5.50;;;;;6.10;102923.00;;;;5056303;28;20215;-74
2023/02/09 02:06:27;;;;;;;9.63;5.45;;;;;6.10;102921.00;;;;5057051;28;20291;-74
2023/02/09 02:08:58;;;;;;;7.88;5.43;;;;;6.00;102922.00;;;;5062283;28;20199;-74
2023/02/09 02:11:28;;;;;;;6.68;4.82;;;;;6.00;102920.00;;;;5063301;28;20589;-74
2023/02/09 02:13:56;;;;;;;7.60;5.43;;;;;6.00;102921.00;;;;5051351;28;21020;-74
2023/02/09 02:16:39;;;;;;;7.95;4.85;;;;;5.90;102910.00;;;;5052770;28;20204;-74
2023/02/09 02:19:54;;;;;;;6.93;4.97;;;;;5.90;102907.00;;;;5051784;28;20286;-74
2023/02/09 02:22:56;;;;;;;7.47;5.07;;;;;5.90;102905.00;;;;5062080;28;20557;-74
2023/02/09 02:26:07;;;;;;;11.68;4.35;;;;;5.80;102908.00;;;;5052148;28;20198;-74
2023/02/09 02:28:51;;;;;;;6.45;4.35;;;;;5.90;102903.00;;;;5065609;28;20195;-74
2023/02/09 02:31:46;;;;;;;7.55;4.45;;;;;5.80;102905.00;;;;5052453;28;20251;-74
2023/02/09 02:34:23;;;;;;;6.70;4.45;;;;;5.90;102899.00;;;;5065696;28;20188;-74
2023/02/09 02:36:59;;;;;;;9.02;5.00;;;;;5.80;102895.00;;;;5050166;28;20202;-74
2023/02/09 02:39:33;;;;;;;10.15;5.60;;;;;5.90;102896.00;;;;5053018;28;20581;-74
2023/02/09 02:44:55;;;;;;;6.40;4.20;;;;;5.90;102897.00;;;;5070179;28;20194;-74
2023/02/09 02:47:25;;;;;;;9.38;5.38;;;;;5.90;102886.00;;;;5064724;28;20234;-74
2023/02/09 02:49:58;;;;;;;7.85;5.03;;;;;5.90;102888.00;;;;5065380;28;20768;-74
2023/02/09 02:52:26;;;;;;;7.30;4.72;;;;;5.90;102895.00;;;;5069057;28;20226;-74
2023/02/09 02:55:02;;;;;;;7.07;5.05;;;;;5.80;102897.00;;;;5064148;28;20204;-74
2023/02/09 02:57:33;;;;;;;8.27;5.70;;;;;5.90;102890.00;;;;5067188;28;21041;-74
2023/02/09 03:00:04;;;;;;;7.32;4.60;;;;;5.80;102872.00;;;;5070123;28;20245;-74
2023/02/09 03:02:38;;;;;;;7.65;5.07;;;;;5.80;102877.00;;;;5062741;28;20199;-74
2023/02/09 03:05:06;;;;;;;6.88;4.85;;;;;5.90;102876.00;;;;5057957;28;20204;-74
2023/02/09 03:07:34;;;;;;;7.32;5.10;;;;;5.90;102878.00;;;;5051752;28;20204;-74
2023/02/09 03:10:01;;;;;;;8.95;5.10;;;;;5.80;102879.00;;;;5067151;28;20207;-74
2023/02/09 03:12:41;;;;;;;7.47;5.35;;;;;5.80;102880.00;;;;5062287;28;20223;-74
2023/02/09 03:15:19;;;;;;;7.57;4.53;;;;;5.80;102882.00;;;;5055668;28;20195;-74
2023/02/09 03:17:59;;;;;;;6.25;4.68;;;;;5.80;102872.00;;;;5063888;28;20195;-74
2023/02/09 03:20:33;;;;;;;5.70;4.47;;;;;5.80;102857.00;;;;5052635;28;20210;-74
2023/02/09 03:23:04;;;;;;;8.00;4.68;;;;;5.80;102859.00;;;;5050698;28;20194;-74
2023/02/09 03:25:35;;;;;;;9.73;5.00;;;;;5.80;102859.00;;;;5065972;28;20202;-74
2023/02/09 03:28:06;;;;;;;8.23;4.88;;;;;5.80;102863.00;;;;5066584;28;20202;-74
2023/02/09 03:30:35;;;;;;;5.55;4.55;;;;;5.80;102851.00;;;;5060723;28;20215;-74
2023/02/09 03:33:04;;;;;;;7.53;4.85;;;;;5.80;102856.00;;;;5060981;28;20255;-74
2023/02/09 03:35:37;;;;;;;12.25;4.35;;;;;5.80;102858.00;;;;5055950;28;20210;-74
2023/02/09 03:38:05;;;;;;;7.70;4.07;;;;;5.80;102849.00;;;;5058661;28;20192;-74
2023/02/09 03:40:33;;;;;;;9.38;4.78;;;;;5.80;102844.00;;;;5061692;28;20357;-74
2023/02/09 03:43:00;;;;;;;6.20;4.47;;;;;5.80;102840.00;;;;5060973;28;20666;-74
2023/02/09 03:45:27;;;;;;;5.85;4.20;;;;;5.80;102839.00;;;;5068832;28;20668;-74
2023/02/09 03:47:54;;;;;;;7.47;4.53;;;;;5.80;102822.00;;;;5056455;28;20705;-74
2023/02/09 03:50:23;;;;;;;7.07;4.20;;;;;5.80;102822.00;;;;5057150;28;20207;-74
2023/02/09 03:52:50;;;;;;;5.93;4.07;;;;;5.80;102816.00;;;;5050067;28;20222;-74
2023/02/09 03:55:18;;;;;;;6.35;4.20;;;;;5.80;102814.00;;;;5063444;28;20211;-74
2023/02/09 03:57:45;;;;;;;7.10;4.97;;;;;5.70;102807.00;;;;5053294;28;20203;-74
2023/02/09 04:00:14;;;;;;;7.40;4.28;;;;;5.70;102805.00;;;;5058849;28;20199;-74
2023/02/09 04:02:41;;;;;;;7.88;4.70;;;;;5.70;102819.00;;;;5056446;28;20868;-73
2023/02/09 04:05:09;;;;;;;7.30;5.00;;;;;5.70;102813.00;;;;5056875;28;20188;-74
2023/02/09 04:07:38;;;;;;;6.05;4.40;;;;;5.70;102818.00;;;;5057232;28;20206;-74
2023/02/09 04:10:06;;;;;;;7.18;4.97;;;;;5.70;102816.00;;;;5062083;28;20192;-74
2023/02/09 04:12:34;;;;;;;8.30;4.13;;;;;5.70;102824.00;;;;5062295;28;20210;-73
2023/02/09 04:15:01;;;;;;;6.32;4.55;;;;;5.70;102832.00;;;;5069046;28;20214;-74
2023/02/09 04:17:29;;;;;;;6.80;4.80;;;;;5.70;102833.00;;;;5063356;28;20199;-74
2023/02/09 04:19:57;;;;;;;7.00;4.30;;;;;5.70;102831.00;;;;5058019;28;20214;-74
2023/02/09 04:22:24;;;;;;;5.85;4.40;;;;;5.70;102829.00;;;;5057371;28;20210;-74
2023/02/09 04:24:53;;;;;;;8.88;4.60;;;;;5.70;102824.00;;;;5056469;28;20241;-74
2023/02/09 04:27:20;;;;;;;6.30;4.25;;;;;5.70;102820.00;;;;5048966;28;20206;-74
2023/02/09 04:29:47;;;;;;;6.15;4.65;;;;;5.80;102817.00;;;;5058610;28;20195;-74
2023/02/09 04:32:14;;;;;;;8.60;5.32;;;;;5.80;102812.00;;;;5053804;28;21048;-74
2023/02/09 04:34:41;;;;;;;9.20;4.95;;;;;5.80;102810.00;;;;5049941;28;20199;-74
2023/02/09 04:37:09;;;;;;;6.88;4.00;;;;;5.70;102814.00;;;;5055278;28;20188;-74
2023/02/09 04:39:36;;;;;;;6.43;4.40;;;;;5.70;102819.00;;;;5047568;28;20229;-74
2023/02/09 04:42:05;;;;;;;6.03;4.20;;;;;5.70;102816.00;;;;5055965;28;20205;-74
2023/02/09 04:44:32;;;;;;;6.07;4.07;;;;;5.70;102825.00;;;;5056263;28;20200;-74
2023/02/09 04:46:59;;;;;;;5.88;3.97;;;;;5.70;102833.00;;;;5060800;28;20221;-74
2023/02/09 04:49:27;;;;;;;8.10;5.43;;;;;5.70;102830.00;;;;5053083;28;20206;-74
2023/02/09 04:51:54;;;;;;;6.65;4.00;;;;;5.70;102830.00;;;;5053013;28;20220;-74
2023/02/09 04:54:21;;;;;;;6.53;3.83;;;;;5.70;102820.00;;;;5049362;28;20199;-73
2023/02/09 04:59:33;;;;;;;5.75;4.10;;;;;5.70;102829.00;;;;5064822;28;20198;-74
2023/02/09 04:59:39;;;;;;;7.13;4.63;;;;;5.70;102831.00;;;;5053091;28;20310;-73
2023/02/09 05:02:06;;;;;;;5.50;4.38;;;;;5.70;102838.00;;;;5054209;28;20200;-74
2023/02/09 05:04:34;;;;;;;6.95;4.80;;;;;5.70;102842.00;;;;5059523;28;20661;-74
2023/02/09 05:07:01;;;;;;;6.93;4.82;;;;;5.70;102840.00;;;;5059357;28;20210;-74
2023/02/09 05:09:28;;;;;;;6.38;4.53;;;;;5.70;102843.00;;;;5048348;28;20211;-74
2023/02/09 05:11:55;;;;;;;7.47;4.75;;;;;5.70;102846.00;;;;5053380;28;20222;-74
2023/02/09 05:14:23;;;;;;;5.80;3.83;;;;;5.70;102845.00;;;;5061448;28;20203;-74
2023/02/09 05:16:51;;;;;;;7.88;4.47;;;;;5.70;102845.00;;;;5057450;28;20200;-74
2023/02/09 05:19:19;;;;;;;6.80;4.65;;;;;5.70;102833.00;;;;5052634;28;20207;-74
2023/02/09 05:21:46;;;;;;;7.53;4.88;;;;;5.70;102834.00;;;;5054741;28;20206;-74
2023/02/09 05:24:13;;;;;;;7.05;4.53;;;;;5.70;102834.00;;;;5065412;28;20206;-74
2023/02/09 05:26:41;;;;;;;7.18;4.07;;;;;5.70;102828.00;;;;5057250;28;20191;-74
2023/02/09 05:29:08;;;;;;;7.25;4.25;;;;;5.80;102836.00;;;;5057796;28;20195;-74
2023/02/09 05:31:35;;;;;;;6.15;4.00;;;;;5.80;102838.00;;;;5057048;28;20202;-74
2023/02/09 05:34:04;;;;;;;5.57;3.67;;;;;5.70;102835.00;;;;5053248;28;20191;-74
2023/02/09 05:36:31;;;;;;;6.03;4.32;;;;;5.80;102830.00;;;;5060161;28;20210;-74
2023/02/09 05:38:58;;;;;;;6.72;4.60;;;;;5.80;102825.00;;;;5050434;28;20204;-74
2023/02/09 05:44:11;;;;;;;7.13;4.65;;;;;5.80;102848.00;;;;5058511;28;20350;-74
2023/02/09 05:46:38;;;;;;;7.60;4.25;;;;;5.80;102848.00;;;;5050506;28;20211;-73
2023/02/09 05:49:07;;;;;;;7.57;3.97;;;;;5.70;102852.00;;;;5061611;28;20192;-74
2023/02/09 05:51:34;;;;;;;5.50;3.67;;;;;5.80;102859.00;;;;5056860;28;20574;-74
2023/02/09 05:54:01;;;;;;;7.20;4.28;;;;;5.80;102858.00;;;;5050447;28;20716;-74
2023/02/09 05:56:28;;;;;;;8.38;4.63;;;;;5.80;102854.00;;;;5053522;28;20198;-74
2023/02/09 05:58:56;;;;;;;5.68;3.80;;;;;5.80;102854.00;;;;5067150;28;20219;-73
2023/02/09 06:01:24;;;;;;;7.63;4.18;;;;;5.80;102859.00;;;;5057446;28;20314;-74
2023/02/09 06:03:52;;;;;;;5.95;4.28;;;;;5.80;102855.00;;;;5047513;28;20196;-74
2023/02/09 06:06:20;;;;;;;6.10;4.40;;;;;5.80;102852.00;;;;5055813;28;20195;-74
2023/02/09 06:08:48;;;;;;;6.15;4.13;;;;;5.80;102858.00;;;;5067094;28;20207;-74
2023/02/09 06:11:15;;;;;;;6.85;4.55;;;;;5.80;102859.00;;;;5063814;28;20207;-74
2023/02/09 06:13:42;;;;;;;5.20;3.33;;;;;5.80;102865.00;;;;5063979;28;20254;-74
2023/02/09 06:16:10;;;;;;;7.93;5.38;;;;;5.80;102870.00;;;;5058664;28;20710;-75
2023/02/09 06:18:37;;;;;;;6.20;4.07;;;;;5.80;102876.00;;;;5055932;28;20214;-75
2023/02/09 06:21:06;;;;;;;7.15;4.65;;;;;5.80;102878.00;;;;5062758;28;20210;-74
2023/02/09 06:23:34;;;;;;;6.50;4.07;;;;;5.80;102885.00;;;;5062799;28;20198;-74
2023/02/09 06:26:06;;;;;;;7.65;4.57;;;;;5.80;102890.00;;;;5053298;28;20196;-74
2023/02/09 06:28:33;;;;;;;6.32;4.38;;;;;5.80;102887.00;;;;5049559;28;20196;-74
2023/02/09 06:31:01;;;;;;;6.78;4.50;;;;;5.80;102888.00;;;;5061834;28;20195;-74
2023/02/09 06:33:28;;;;;;;7.07;4.25;;;;;5.80;102890.00;;;;5069969;28;20229;-75
2023/02/09 06:35:56;;;;;;;7.32;4.13;;;;;5.80;102900.00;;;;5064530;28;20199;-75
2023/02/09 06:38:23;;;;;;;6.65;4.03;;;;;5.80;102904.00;;;;5062807;28;20219;-75
2023/02/09 06:40:51;;;;;;;6.80;4.35;;;;;5.80;102913.00;;;;5054551;28;20206;-75
2023/02/09 06:43:19;;;;;;;6.57;4.35;;;;;5.80;102909.00;;;;5068785;28;20210;-75
2023/02/09 06:45:46;;;;;;;6.38;4.40;;;;;5.80;102902.00;;;;5067606;28;20218;-76
2023/02/09 06:48:13;;;;;;;7.65;4.72;;;;;5.80;102897.00;;;;5061652;28;20191;-75
2023/02/09 06:50:41;;;;;;;7.00;4.70;;;;;5.80;102903.00;;;;5058023;28;20203;-74
2023/02/09 06:53:08;;;;;;;6.55;4.53;;;;;5.80;102910.00;;;;5053939;28;20216;-74
2023/02/09 06:55:35;;;;;;;6.25;4.47;;;;;5.80;102916.00;;;;5060006;28;20198;-74
2023/02/09 06:58:04;;;;;;;5.85;3.92;;;;;5.80;102913.00;;;;5060652;28;20636;-74
2023/02/09 07:00:32;;;;;;;7.28;5.22;;;;;5.80;102930.00;;;;5067700;28;20199;-74
2023/02/09 07:03:00;;;;;;;5.70;4.05;;;;;5.80;102927.00;;;;5054751;28;20195;-74
2023/02/09 07:05:27;;;;;;;8.63;4.38;;;;;5.80;102923.00;;;;5061025;28;20668;-73
2023/02/09 07:07:56;;;;;;;7.32;4.18;;;;;5.80;102932.00;;;;5052534;28;20207;-73
2023/02/09 07:10:24;;;;;;;6.65;4.07;;;;;5.80;102920.00;;;;5067470;28;20195;-73
2023/02/09 07:12:51;;;;;;;13.48;4.00;;;;;5.80;102920.00;;;;5068932;28;20226;-73
2023/02/09 07:15:20;;;;;;;7.55;4.63;;;;;5.80;102933.00;;;;5069364;28;20202;-73
2023/02/09 07:17:47;;;;;;;8.05;4.25;;;;;5.80;102938.00;;;;5051275;28;20657;-73
2023/02/09 07:20:14;;;;;;;8.88;5.03;;;;;5.80;102929.00;;;;5050113;28;20199;-73
2023/02/09 07:22:41;;;;;;;6.97;4.90;;;;;5.90;102918.00;;;;5048541;28;20195;-73
2023/02/09 07:25:09;;;;;;;8.63;4.75;;;;;5.90;102918.00;;;;5050036;28;20199;-73
2023/02/09 07:27:36;;;;;;;6.72;4.57;;;;;5.90;102909.00;;;;5066657;28;20198;-73
2023/02/09 07:30:04;;;;;;;8.02;4.78;;;;;5.90;102901.00;;;;5050190;28;20206;-73
2023/02/09 07:32:32;;;;;;;7.63;5.00;;;;;6.00;102904.00;;;;5068075;28;20222;-73
2023/02/09 07:35:00;;;;;;;8.05;5.10;;;;;6.00;102908.00;;;;5053649;28;20200;-73
2023/02/09 07:37:27;;;;;;;7.97;4.97;;;;;6.00;102902.00;;;;5065355;28;20211;-73
2023/02/09 07:39:54;;;;;;;7.03;4.90;;;;;6.10;102897.00;;;;5068568;28;20195;-73
2023/02/09 07:42:21;;;;;;;6.78;4.82;;;;;6.10;102885.00;;;;5053683;28;20581;-73
2023/02/09 07:44:49;;;;;;;7.90;4.65;;;;;6.20;102900.00;;;;5047884;28;20681;-73
2023/02/09 07:47:16;;;;;;;8.43;5.13;;;;;6.20;102900.00;;;;5061433;28;20226;-73
2023/02/09 07:49:45;;;;;;;8.43;4.78;;;;;6.20;102899.00;;;;5058692;28;20207;-73
2023/02/09 07:52:12;;;;;;;6.43;4.30;;;;;6.30;102914.00;;;;5057326;28;20191;-73
2023/02/09 07:54:39;;;;;;;7.00;4.45;;;;;6.30;102908.00;;;;5048494;28;20234;-73
2023/02/09 07:57:07;;;;;;;7.20;4.80;;;;;6.40;102906.00;;;;5052368;28;20191;-73
2023/02/09 07:59:34;;;;;;;6.45;4.32;;;;;6.50;102899.00;;;;5058448;28;20815;-74
2023/02/09 08:02:01;;;;;;;6.35;4.53;;;;;6.50;102891.00;;;;5057399;28;20195;-74
2023/02/09 08:04:29;;;;;;;7.35;4.80;;;;;6.60;102881.00;;;;5056413;28;20198;-73
2023/02/09 08:06:57;;;;;;;8.40;5.22;;;;;6.60;102890.00;;;;5058478;28;20669;-74
2023/02/09 08:09:25;;;;;;;9.10;4.97;;;;;6.70;102891.00;;;;5050231;28;20203;-74
2023/02/09 08:11:57;;;;;;;7.15;5.25;;;;;6.70;102890.00;;;;5057563;28;20282;-74
2023/02/09 08:14:28;;;;;;;6.95;4.78;;;;;6.80;102882.00;;;;5058203;28;20219;-74
2023/02/09 08:19:43;;;;;;;7.15;4.30;;;;;6.90;102899.00;;;;5047461;28;20199;-74
2023/02/09 08:22:11;;;;;;;8.07;5.32;;;;;7.00;102908.00;;;;5065564;28;20227;-74
2023/02/09 08:24:39;;;;;;;6.75;4.45;;;;;7.00;102920.00;;;;5061387;28;20279;-74
2023/02/09 08:27:06;;;;;;;7.88;4.70;;;;;7.10;102922.00;;;;5048234;28;20200;-74
2023/02/09 08:29:33;;;;;;;8.07;5.15;;;;;7.10;102922.00;;;;5049515;28;20192;-74
2023/02/09 08:32:01;;;;;;;7.00;4.95;;;;;7.20;102915.00;;;;5047928;28;20196;-74
2023/02/09 08:34:28;;;;;;;10.07;5.28;;;;;7.30;102909.00;;;;5047915;28;20231;-74
2023/02/09 08:36:55;;;;;;;8.35;4.72;;;;;7.30;102914.00;;;;5055006;28;20208;-74
2023/02/09 08:39:24;;;;;;;7.65;4.82;;;;;7.30;102914.00;;;;5048805;28;20210;-73
2023/02/09 08:41:51;;;;;;;6.65;4.75;;;;;7.40;102921.00;;;;5062167;28;20206;-74
2023/02/09 08:44:18;;;;;;;7.20;4.75;;;;;7.50;102914.00;;;;5048195;28;20258;-74
2023/02/09 08:46:45;;;;;;;8.27;5.75;;;;;7.50;102920.00;;;;5047639;28;20212;-74
2023/02/09 08:49:13;;;;;;;8.93;5.40;;;;;7.60;102923.00;;;;5048587;28;20684;-74
2023/02/09 08:51:40;;;;;;;7.90;4.63;;;;;7.60;102905.00;;;;5048123;28;20196;-74
2023/02/09 08:54:07;;;;;;;9.15;5.75;;;;;7.70;102905.00;;;;5048436;28;20228;-74
2023/02/09 08:56:36;;;;;;;7.05;5.18;;;;;7.70;102902.00;;;;5061709;28;20195;-73
2023/02/09 08:59:03;;;;;;;8.20;4.97;;;;;7.80;102896.00;;;;5051356;28;20243;-74
2023/02/09 09:01:31;;;;;;;8.63;4.82;;;;;7.80;102910.00;;;;5048402;28;20203;-73
2023/02/09 09:03:58;;;;;;;7.45;5.20;;;;;7.80;102916.00;;;;5048625;28;20196;-74
2023/02/09 09:06:26;;;;;;;9.00;5.43;;;;;7.90;102914.00;;;;5048587;28;20700;-74
2023/02/09 09:08:53;;;;;;;8.35;5.25;;;;;7.90;102926.00;;;;5048831;28;20203;-74
2023/02/09 09:11:21;;;;;;;6.88;5.10;;;;;8.00;102907.00;;;;5051441;28;20196;-74
2023/02/09 09:13:49;;;;;;;8.48;5.53;;;;;8.00;102905.00;;;;5050865;28;20231;-74
2023/02/09 09:16:18;;;;;;;8.20;5.28;;;;;8.10;102907.00;;;;5053349;28;20657;-74
2023/02/09 09:18:46;;;;;;;8.38;5.40;;;;;8.20;102910.00;;;;5067874;28;20203;-74
2023/02/09 09:21:14;;;;;;;7.65;5.43;;;;;8.20;102923.00;;;;5057302;28;20506;-73
2023/02/09 09:23:42;;;;;;;8.10;5.25;;;;;8.30;102930.00;;;;5047413;28;20213;-74
2023/02/09 09:26:09;;;;;;;8.60;4.85;;;;;8.30;102926.00;;;;5056074;28;20191;-73
2023/02/09 09:28:37;;;;;;;8.77;5.20;;;;;8.40;102915.00;;;;5050950;28;20202;-75
2023/02/09 09:31:10;;;;;;;9.57;5.40;;;;;8.40;102909.00;;;;5051195;28;20198;-74
2023/02/09 09:33:38;;;;;;;8.43;5.80;;;;;8.50;102908.00;;;;5065187;28;20693;-74
2023/02/09 09:36:06;;;;;;;8.02;5.35;;;;;8.50;102915.00;;;;5061055;28;20199;-73
2023/02/09 09:38:34;;;;;;;9.07;5.47;;;;;8.60;102911.00;;;;5060473;28;20199;-73
2023/02/09 09:41:03;;;;;;;8.77;5.07;;;;;8.60;102905.00;;;;5047727;28;20192;-74
2023/02/09 09:43:34;;;;;;;7.70;5.07;;;;;8.70;102919.00;;;;5047373;28;20549;-75
2023/02/09 09:46:02;;;;;;;13.35;5.78;;;;;8.70;102926.00;;;;5047874;28;20215;-74
2023/02/09 09:48:41;;;;;;;9.00;5.75;;;;;8.70;102922.00;;;;5059440;28;20210;-74
2023/02/09 09:51:13;;;;;;;8.13;5.78;;;;;8.90;102931.00;;;;5071073;28;20198;-74
2023/02/09 09:53:45;;;;;;;7.63;5.30;;;;;8.90;102946.00;;;;5070463;28;20693;-74
2023/02/09 09:56:14;;;;;;;7.55;5.05;;;;;9.00;102945.00;;;;5060595;28;20204;-74
2023/02/09 09:58:44;;;;;;;8.35;5.78;;;;;9.10;102942.00;;;;5050324;28;20218;-74
2023/02/09 10:01:13;;;;;;;8.30;5.57;;;;;9.10;102940.00;;;;5051097;28;20279;-74
2023/02/09 10:03:42;;;;;;;8.18;5.45;;;;;9.20;102952.00;;;;5056599;28;20195;-74
2023/02/09 10:06:16;;;;;;;9.85;6.25;;;;;9.20;102952.00;;;;5061436;28;20207;-74
2023/02/09 10:08:50;;;;;;;8.88;5.70;;;;;9.30;102954.00;;;;5050346;28;20641;-74
2023/02/09 10:11:20;;;;;;;9.73;5.65;;;;;9.50;102964.00;;;;5053970;28;20600;-74
2023/02/09 10:13:50;;;;;;;8.35;5.40;;;;;9.50;102969.00;;;;5063916;28;20230;-74
2023/02/09 10:16:19;;;;;;;10.02;6.63;;;;;9.70;102971.00;;;;5060723;28;20203;-74
2023/02/09 10:18:51;;;;;;;8.02;5.55;;;;;9.70;102954.00;;;;5070068;28;20201;-74
2023/02/09 10:21:19;;;;;;;7.82;4.90;;;;;9.90;102956.00;;;;5054548;28;20196;-74
2023/02/09 10:24:04;;;;;;;10.05;5.15;;;;;10.00;102954.00;;;;5064812;28;20646;-74
2023/02/09 10:26:33;;;;;;;9.27;5.90;;;;;10.10;102957.00;;;;5057367;28;20209;-74
2023/02/09 10:29:08;;;;;;;21.30;5.15;;;;;10.20;102966.00;;;;5068346;28;20198;-74
2023/02/09 10:31:41;;;;;;;10.05;5.60;;;;;10.20;102962.00;;;;5069437;28;20197;-74
2023/02/09 10:34:16;;;;;;;8.88;5.95;;;;;10.30;102964.00;;;;5070226;28;20261;-74
2023/02/09 10:36:49;;;;;;;8.32;5.47;;;;;10.40;102962.00;;;;5053824;28;20222;-74
2023/02/09 10:39:19;;;;;;;9.82;6.18;;;;;10.50;102956.00;;;;5056895;28;20204;-74
2023/02/09 10:41:50;;;;;;;8.50;5.57;;;;;10.60;102961.00;;;;5049623;28;20196;-74
2023/02/09 10:44:22;;;;;;;8.13;5.80;;;;;10.60;102956.00;;;;5050671;28;20222;-74
2023/02/09 10:46:50;;;;;;;8.45;5.90;;;;;10.70;102963.00;;;;5050534;28;20223;-74
2023/02/09 10:49:30;;;;;;;9.98;6.35;;;;;10.70;102967.00;;;;5050922;28;20643;-74
2023/02/09 10:52:14;;;;;;;8.70;5.80;;;;;10.70;102973.00;;;;5050968;28;20196;-74
2023/02/09 10:54:42;;;;;;;9.80;5.97;;;;;10.80;102976.00;;;;5061043;28;20230;-75
2023/02/09 10:57:22;;;;;;;11.15;6.63;;;;;10.80;102984.00;;;;5055824;28;20196;-74
2023/02/09 10:59:54;;;;;;;7.88;5.75;;;;;10.80;102987.00;;;;5053720;28;20211;-74
2023/02/09 11:02:40;;;;;;;9.77;5.70;;;;;10.80;102995.00;;;;5053319;28;20656;-74
2023/02/09 11:05:32;;;;;;;12.07;6.13;;;;;10.80;102988.00;;;;5061969;28;20192;-74
2023/02/09 11:08:10;;;;;;;8.40;5.80;;;;;10.90;102992.00;;;;5054583;28;20286;-74
2023/02/09 11:10:43;;;;;;;9.43;5.85;;;;;11.00;102984.00;;;;5060173;28;20183;-74
2023/02/09 11:13:21;;;;;;;7.97;5.88;;;;;11.00;102978.00;;;;5058216;28;20662;-74
2023/02/09 11:16:04;;;;;;;8.50;6.10;;;;;11.00;102980.00;;;;5060131;28;20201;-74
2023/02/09 11:18:34;;;;;;;9.57;5.70;;;;;11.10;102982.00;;;;5057151;28;20199;-74
2023/02/09 11:21:10;;;;;;;8.57;5.90;;;;;11.10;102976.00;;;;5061833;28;20194;-74
2023/02/09 11:23:45;;;;;;;12.40;7.25;;;;;11.10;102983.00;;;;5055169;28;20244;-74
2023/02/09 11:26:21;;;;;;;11.10;6.25;;;;;11.20;102982.00;;;;5051741;28;20206;-74
2023/02/09 11:28:57;;;;;;;8.25;5.75;;;;;11.30;102986.00;;;;5056314;28;20226;-74
2023/02/09 11:32:08;;;;;;;11.82;6.75;;;;;11.20;102981.00;;;;5050362;28;20197;-74
2023/02/09 11:35:02;;;;;;;9.55;6.28;;;;;11.30;102979.00;;;;5020506;28;20233;-74
2023/02/09 11:37:39;;;;;;;9.77;6.32;;;;;11.40;102980.00;;;;5044816;28;20566;-74
2023/02/09 11:40:22;;;;;;;10.73;6.72;;;;;11.50;102989.00;;;;5049550;28;20203;-74
2023/02/09 11:42:58;;;;;;;9.43;6.45;;;;;11.60;102990.00;;;;5053544;28;20187;-71
2023/02/09 11:45:32;;;;;;;9.30;6.68;;;;;11.60;102978.00;;;;5057659;28;20733;-71
2023/02/09 11:48:08;;;;;;;9.43;6.43;;;;;11.70;102966.00;;;;5059198;28;20234;-72
2023/02/09 11:50:43;;;;;;;10.60;6.30;;;;;11.80;102969.00;;;;5056955;28;20190;-71
2023/02/09 11:53:22;;;;;;;10.60;7.05;;;;;11.80;102973.00;;;;5055906;28;20246;-71
2023/02/09 11:55:53;;;;;;;10.15;6.63;;;;;12.00;102967.00;;;;5055631;28;20242;-71
2023/02/09 11:58:33;;;;;;;16.17;8.75;;;;;11.90;102973.00;;;;5059512;28;20721;-71
2023/02/09 12:01:07;;;;;;;9.90;6.75;;;;;12.00;102974.00;;;;5059573;28;20688;-74
2023/02/09 12:03:35;;;;;;;11.15;7.13;;;;;12.00;102985.00;;;;5060993;28;20628;-74
2023/02/09 12:06:02;;;;;;;9.57;7.00;;;;;12.10;102986.00;;;;5058586;28;20581;-74
2023/02/09 12:08:55;;;;;;;11.02;7.47;;;;;12.00;102975.00;;;;5053806;28;20203;-74
2023/02/09 12:11:31;;;;;;;9.88;6.78;;;;;12.10;102979.00;;;;5061444;28;20195;-74
2023/02/09 12:14:13;;;;;;;9.55;7.10;;;;;12.10;102974.00;;;;5056898;28;20218;-74
2023/02/09 12:16:45;;;;;;;12.60;7.03;;;;;12.20;102973.00;;;;5054997;28;20192;-74
2023/02/09 12:19:30;;;;;;;10.88;7.25;;;;;12.20;102975.00;;;;5054163;28;20222;-74
2023/02/09 12:21:57;;;;;;;10.75;7.07;;;;;12.30;102967.00;;;;5051644;28;20199;-74
2023/02/09 12:24:40;;;;;;;11.27;7.28;;;;;12.30;102970.00;;;;5062830;28;20214;-74
2023/02/09 12:27:25;;;;;;;9.65;7.00;;;;;12.30;102967.00;;;;5066808;28;20564;-74
2023/02/09 12:29:52;;;;;;;8.85;6.55;;;;;12.50;102966.00;;;;5061144;28;20199;-74
2023/02/09 12:32:43;;;;;;;11.07;7.90;;;;;12.40;102956.00;;;;5056049;28;20211;-74
2023/02/09 12:35:37;;;;;;;11.55;7.00;;;;;12.40;102958.00;;;;5064297;28;20222;-74
2023/02/09 12:38:14;;;;;;;10.30;7.25;;;;;12.50;102951.00;;;;5064633;28;20194;-74
2023/02/09 12:40:42;;;;;;;11.90;8.43;;;;;12.60;102946.00;;;;5052152;28;20195;-74
2023/02/09 12:43:26;;;;;;;11.15;8.57;;;;;12.50;102945.00;;;;5063822;28;20210;-74